Terminal Aerodrome Forecast
Issued by NWS

Home | Current Version | Previous Version | Text Only | Print | Product List | Glossary On
Versions: 1 2 3 4 5 6 7 8 9 10 11 12 13 14 15 16 17 18 19 20 21 22 23 24 25 26 27 28 29 30 31 32 33 34 35
000
FTUS46 KOTX 251723
TAFSFF
TAF
KSFF 251723Z 2518/2618 18008KT P6SM VCSH BKN026 OVC050
     FM252100 23006G13KT P6SM VCTS SCT050CB BKN080
     FM260200 VRB03KT P6SM VCSH BKN070 OVC100
     FM261200 18004KT P6SM SCT080 BKN100=

USA.gov is the U.S. government's official web portal to all federal, state and local government web resources and services.